sensor_id;sensor_type;location;lat;lon;timestamp;P1;durP1;ratioP1;P2;durP2;ratioP2
7444;SDS011;3764;48.126;11.594;2024-01-11T00:02:06;55.95;;;19.40;;
7444;SDS011;3764;48.126;11.594;2024-01-11T00:04:33;44.65;;;18.73;;
7444;SDS011;3764;48.126;11.594;2024-01-11T00:07:00;47.20;;;20.00;;
7444;SDS011;3764;48.126;11.594;2024-01-11T00:09:29;37.28;;;18.35;;
7444;SDS011;3764;48.126;11.594;2024-01-11T00:11:56;42.15;;;19.20;;
7444;SDS011;3764;48.126;11.594;2024-01-11T00:14:24;42.70;;;18.92;;
7444;SDS011;3764;48.126;11.594;2024-01-11T00:16:51;48.13;;;20.50;;
7444;SDS011;3764;48.126;11.594;2024-01-11T00:19:18;60.67;;;20.10;;
7444;SDS011;3764;48.126;11.594;2024-01-11T00:21:46;43.70;;;20.13;;
7444;SDS011;3764;48.126;11.594;2024-01-11T00:24:13;56.75;;;20.15;;
7444;SDS011;3764;48.126;11.594;2024-01-11T00:26:42;51.15;;;20.70;;
7444;SDS011;3764;48.126;11.594;2024-01-11T00:29:09;59.70;;;23.23;;
7444;SDS011;3764;48.126;11.594;2024-01-11T00:31:37;51.08;;;20.73;;
7444;SDS011;3764;48.126;11.594;2024-01-11T00:34:04;42.20;;;18.83;;
7444;SDS011;3764;48.126;11.594;2024-01-11T00:36:32;53.47;;;22.45;;
7444;SDS011;3764;48.126;11.594;2024-01-11T00:39:00;47.42;;;18.42;;
7444;SDS011;3764;48.126;11.594;2024-01-11T00:41:27;51.13;;;22.05;;
7444;SDS011;3764;48.126;11.594;2024-01-11T00:43:56;52.88;;;20.35;;
7444;SDS011;3764;48.126;11.594;2024-01-11T00:46:23;47.90;;;20.10;;
7444;SDS011;3764;48.126;11.594;2024-01-11T00:48:50;53.67;;;21.48;;
7444;SDS011;3764;48.126;11.594;2024-01-11T00:51:18;44.90;;;18.60;;
7444;SDS011;3764;48.126;11.594;2024-01-11T00:53:45;49.70;;;19.50;;
7444;SDS011;3764;48.126;11.594;2024-01-11T00:56:15;48.85;;;18.95;;
7444;SDS011;3764;48.126;11.594;2024-01-11T00:58:43;44.72;;;20.60;;
7444;SDS011;3764;48.126;11.594;2024-01-11T01:01:12;45.28;;;19.75;;
7444;SDS011;3764;48.126;11.594;2024-01-11T01:03:40;42.53;;;18.67;;
7444;SDS011;3764;48.126;11.594;2024-01-11T01:06:07;42.03;;;19.30;;
7444;SDS011;3764;48.126;11.594;2024-01-11T01:08:34;45.90;;;18.20;;
7444;SDS011;3764;48.126;11.594;2024-01-11T01:11:02;48.05;;;19.13;;
7444;SDS011;3764;48.126;11.594;2024-01-11T01:13:29;44.97;;;18.27;;
7444;SDS011;3764;48.126;11.594;2024-01-11T01:15:57;53.88;;;19.60;;
7444;SDS011;3764;48.126;11.594;2024-01-11T01:18:26;50.50;;;21.02;;
7444;SDS011;3764;48.126;11.594;2024-01-11T01:20:53;55.75;;;22.42;;
7444;SDS011;3764;48.126;11.594;2024-01-11T01:23:20;49.53;;;18.60;;
7444;SDS011;3764;48.126;11.594;2024-01-11T01:25:48;56.60;;;20.75;;
7444;SDS011;3764;48.126;11.594;2024-01-11T01:28:15;52.25;;;19.27;;
7444;SDS011;3764;48.126;11.594;2024-01-11T01:30:43;53.67;;;22.38;;
7444;SDS011;3764;48.126;11.594;2024-01-11T01:33:10;45.85;;;19.85;;
7444;SDS011;3764;48.126;11.594;2024-01-11T01:35:39;44.58;;;18.77;;
7444;SDS011;3764;48.126;11.594;2024-01-11T01:38:06;40.50;;;18.75;;
7444;SDS011;3764;48.126;11.594;2024-01-11T01:40:33;47.40;;;18.95;;
7444;SDS011;3764;48.126;11.594;2024-01-11T01:43:01;42.20;;;17.98;;
7444;SDS011;3764;48.126;11.594;2024-01-11T01:45:33;50.53;;;18.73;;
7444;SDS011;3764;48.126;11.594;2024-01-11T01:48:00;41.20;;;16.60;;
7444;SDS011;3764;48.126;11.594;2024-01-11T01:50:28;40.40;;;17.10;;
7444;SDS011;3764;48.126;11.594;2024-01-11T01:52:58;44.30;;;18.17;;
7444;SDS011;3764;48.126;11.594;2024-01-11T01:55:26;39.03;;;16.38;;
7444;SDS011;3764;48.126;11.594;2024-01-11T01:57:55;35.38;;;16.00;;
7444;SDS011;3764;48.126;11.594;2024-01-11T02:00:23;46.05;;;20.17;;
7444;SDS011;3764;48.126;11.594;2024-01-11T02:02:51;34.83;;;16.25;;
7444;SDS011;3764;48.126;11.594;2024-01-11T02:05:19;44.88;;;18.17;;
7444;SDS011;3764;48.126;11.594;2024-01-11T02:07:46;39.30;;;15.82;;
7444;SDS011;3764;48.126;11.594;2024-01-11T02:10:15;42.17;;;18.75;;
7444;SDS011;3764;48.126;11.594;2024-01-11T02:12:43;47.08;;;16.80;;
7444;SDS011;3764;48.126;11.594;2024-01-11T02:15:11;45.33;;;19.08;;
7444;SDS011;3764;48.126;11.594;2024-01-11T02:17:39;48.33;;;18.83;;
7444;SDS011;3764;48.126;11.594;2024-01-11T02:20:07;46.70;;;17.60;;
7444;SDS011;3764;48.126;11.594;2024-01-11T02:22:36;43.70;;;16.83;;
7444;SDS011;3764;48.126;11.594;2024-01-11T02:25:08;39.55;;;18.52;;
7444;SDS011;3764;48.126;11.594;2024-01-11T02:27:45;41.17;;;17.10;;
7444;SDS011;3764;48.126;11.594;2024-01-11T02:30:13;42.67;;;17.48;;
7444;SDS011;3764;48.126;11.594;2024-01-11T02:32:41;45.20;;;19.63;;
7444;SDS011;3764;48.126;11.594;2024-01-11T02:35:11;47.92;;;18.00;;
7444;SDS011;3764;48.126;11.594;2024-01-11T02:37:39;41.78;;;15.93;;
7444;SDS011;3764;48.126;11.594;2024-01-11T02:40:09;48.35;;;17.73;;
7444;SDS011;3764;48.126;11.594;2024-01-11T02:42:37;37.55;;;16.98;;
7444;SDS011;3764;48.126;11.594;2024-01-11T02:45:04;29.95;;;15.02;;
7444;SDS011;3764;48.126;11.594;2024-01-11T02:47:32;44.10;;;17.80;;
7444;SDS011;3764;48.126;11.594;2024-01-11T02:49:59;46.28;;;18.30;;
7444;SDS011;3764;48.126;11.594;2024-01-11T02:52:27;50.35;;;17.85;;
7444;SDS011;3764;48.126;11.594;2024-01-11T02:54:54;38.50;;;17.00;;
7444;SDS011;3764;48.126;11.594;2024-01-11T02:57:23;43.70;;;16.45;;
7444;SDS011;3764;48.126;11.594;2024-01-11T02:59:51;43.40;;;18.02;;
7444;SDS011;3764;48.126;11.594;2024-01-11T03:02:18;46.67;;;18.15;;
7444;SDS011;3764;48.126;11.594;2024-01-11T03:04:45;49.80;;;18.80;;
7444;SDS011;3764;48.126;11.594;2024-01-11T03:07:13;37.50;;;17.48;;
7444;SDS011;3764;48.126;11.594;2024-01-11T03:09:40;41.25;;;18.80;;
7444;SDS011;3764;48.126;11.594;2024-01-11T03:12:08;42.20;;;17.17;;
7444;SDS011;3764;48.126;11.594;2024-01-11T03:14:36;37.72;;;16.52;;
7444;SDS011;3764;48.126;11.594;2024-01-11T03:17:04;40.58;;;17.27;;
7444;SDS011;3764;48.126;11.594;2024-01-11T03:19:32;40.30;;;17.38;;
7444;SDS011;3764;48.126;11.594;2024-01-11T03:21:59;50.25;;;18.55;;
7444;SDS011;3764;48.126;11.594;2024-01-11T03:24:31;40.63;;;15.38;;
7444;SDS011;3764;48.126;11.594;2024-01-11T03:26:58;37.53;;;15.30;;
7444;SDS011;3764;48.126;11.594;2024-01-11T03:29:26;43.22;;;16.45;;
7444;SDS011;3764;48.126;11.594;2024-01-11T03:31:54;37.90;;;17.20;;
7444;SDS011;3764;48.126;11.594;2024-01-11T03:34:22;35.45;;;16.15;;
7444;SDS011;3764;48.126;11.594;2024-01-11T03:36:49;39.95;;;18.55;;
7444;SDS011;3764;48.126;11.594;2024-01-11T03:39:16;35.97;;;14.95;;
7444;SDS011;3764;48.126;11.594;2024-01-11T03:41:44;40.58;;;15.88;;
7444;SDS011;3764;48.126;11.594;2024-01-11T03:44:12;31.23;;;15.30;;
7444;SDS011;3764;48.126;11.594;2024-01-11T03:46:39;37.03;;;14.55;;
7444;SDS011;3764;48.126;11.594;2024-01-11T03:49:08;32.83;;;16.73;;
7444;SDS011;3764;48.126;11.594;2024-01-11T03:51:36;34.35;;;16.00;;
7444;SDS011;3764;48.126;11.594;2024-01-11T03:54:03;33.60;;;17.23;;
7444;SDS011;3764;48.126;11.594;2024-01-11T03:56:30;42.78;;;16.45;;
7444;SDS011;3764;48.126;11.594;2024-01-11T03:58:58;36.00;;;16.58;;
7444;SDS011;3764;48.126;11.594;2024-01-11T04:01:25;40.63;;;17.30;;
7444;SDS011;3764;48.126;11.594;2024-01-11T04:03:52;38.55;;;17.73;;
7444;SDS011;3764;48.126;11.594;2024-01-11T04:06:21;45.72;;;18.30;;
7444;SDS011;3764;48.126;11.594;2024-01-11T04:08:49;33.78;;;17.40;;
7444;SDS011;3764;48.126;11.594;2024-01-11T04:11:17;43.22;;;16.80;;
7444;SDS011;3764;48.126;11.594;2024-01-11T04:13:44;41.75;;;19.73;;
7444;SDS011;3764;48.126;11.594;2024-01-11T04:16:12;46.53;;;19.20;;
7444;SDS011;3764;48.126;11.594;2024-01-11T04:18:39;55.45;;;20.15;;
7444;SDS011;3764;48.126;11.594;2024-01-11T04:21:06;43.20;;;17.75;;
7444;SDS011;3764;48.126;11.594;2024-01-11T04:23:35;47.70;;;17.33;;
7444;SDS011;3764;48.126;11.594;2024-01-11T04:26:03;44.05;;;18.02;;
7444;SDS011;3764;48.126;11.594;2024-01-11T04:28:30;41.50;;;18.15;;
7444;SDS011;3764;48.126;11.594;2024-01-11T04:30:57;44.50;;;18.42;;
7444;SDS011;3764;48.126;11.594;2024-01-11T04:33:25;34.65;;;14.30;;
7444;SDS011;3764;48.126;11.594;2024-01-11T04:35:52;42.15;;;16.42;;
7444;SDS011;3764;48.126;11.594;2024-01-11T04:38:19;46.67;;;16.80;;
7444;SDS011;3764;48.126;11.594;2024-01-11T04:40:48;40.28;;;18.25;;
7444;SDS011;3764;48.126;11.594;2024-01-11T04:43:15;40.45;;;15.15;;
7444;SDS011;3764;48.126;11.594;2024-01-11T04:45:43;53.10;;;16.63;;
7444;SDS011;3764;48.126;11.594;2024-01-11T04:48:10;40.30;;;17.70;;
7444;SDS011;3764;48.126;11.594;2024-01-11T04:50:37;42.03;;;17.75;;
7444;SDS011;3764;48.126;11.594;2024-01-11T04:53:05;30.08;;;14.13;;
7444;SDS011;3764;48.126;11.594;2024-01-11T04:55:32;37.20;;;16.05;;
7444;SDS011;3764;48.126;11.594;2024-01-11T04:58:01;34.00;;;17.05;;
7444;SDS011;3764;48.126;11.594;2024-01-11T05:00:28;43.10;;;16.13;;
7444;SDS011;3764;48.126;11.594;2024-01-11T05:02:56;38.03;;;15.52;;
7444;SDS011;3764;48.126;11.594;2024-01-11T05:05:23;31.42;;;15.55;;
7444;SDS011;3764;48.126;11.594;2024-01-11T05:07:51;30.75;;;14.63;;
7444;SDS011;3764;48.126;11.594;2024-01-11T05:10:18;32.97;;;14.48;;
7444;SDS011;3764;48.126;11.594;2024-01-11T05:12:45;44.97;;;17.80;;
7444;SDS011;3764;48.126;11.594;2024-01-11T05:15:14;33.10;;;14.63;;
7444;SDS011;3764;48.126;11.594;2024-01-11T05:17:41;33.05;;;14.70;;
7444;SDS011;3764;48.126;11.594;2024-01-11T05:20:09;40.13;;;16.08;;
7444;SDS011;3764;48.126;11.594;2024-01-11T05:22:37;34.90;;;14.93;;
7444;SDS011;3764;48.126;11.594;2024-01-11T05:25:04;38.13;;;17.80;;
7444;SDS011;3764;48.126;11.594;2024-01-11T05:27:32;33.22;;;17.05;;
7444;SDS011;3764;48.126;11.594;2024-01-11T05:29:59;35.97;;;15.80;;
7444;SDS011;3764;48.126;11.594;2024-01-11T05:32:28;40.65;;;15.60;;
7444;SDS011;3764;48.126;11.594;2024-01-11T05:34:55;39.58;;;16.52;;
7444;SDS011;3764;48.126;11.594;2024-01-11T05:37:23;37.25;;;15.80;;
7444;SDS011;3764;48.126;11.594;2024-01-11T05:39:50;37.45;;;14.77;;
7444;SDS011;3764;48.126;11.594;2024-01-11T05:42:19;29.45;;;13.15;;
7444;SDS011;3764;48.126;11.594;2024-01-11T05:44:46;28.92;;;12.60;;
7444;SDS011;3764;48.126;11.594;2024-01-11T05:47:14;27.90;;;13.95;;
7444;SDS011;3764;48.126;11.594;2024-01-11T05:49:43;32.95;;;16.70;;
7444;SDS011;3764;48.126;11.594;2024-01-11T05:52:10;31.40;;;14.38;;
7444;SDS011;3764;48.126;11.594;2024-01-11T05:54:37;37.08;;;14.60;;
7444;SDS011;3764;48.126;11.594;2024-01-11T05:57:05;39.67;;;14.48;;
7444;SDS011;3764;48.126;11.594;2024-01-11T05:59:32;40.63;;;17.27;;
7444;SDS011;3764;48.126;11.594;2024-01-11T06:02:00;35.85;;;15.43;;
7444;SDS011;3764;48.126;11.594;2024-01-11T06:04:27;26.63;;;14.45;;
7444;SDS011;3764;48.126;11.594;2024-01-11T06:06:56;26.42;;;14.85;;
7444;SDS011;3764;48.126;11.594;2024-01-11T06:09:24;30.35;;;14.32;;
7444;SDS011;3764;48.126;11.594;2024-01-11T06:11:51;35.97;;;15.73;;
7444;SDS011;3764;48.126;11.594;2024-01-11T06:14:19;27.65;;;14.73;;
7444;SDS011;3764;48.126;11.594;2024-01-11T06:16:46;37.15;;;15.45;;
7444;SDS011;3764;48.126;11.594;2024-01-11T06:19:14;36.83;;;15.05;;
7444;SDS011;3764;48.126;11.594;2024-01-11T06:21:42;27.92;;;14.60;;
7444;SDS011;3764;48.126;11.594;2024-01-11T06:24:10;26.52;;;12.85;;
7444;SDS011;3764;48.126;11.594;2024-01-11T06:26:38;29.60;;;13.82;;
7444;SDS011;3764;48.126;11.594;2024-01-11T06:29:05;35.45;;;14.98;;
7444;SDS011;3764;48.126;11.594;2024-01-11T06:31:32;36.28;;;15.25;;
7444;SDS011;3764;48.126;11.594;2024-01-11T06:34:00;30.38;;;14.27;;
7444;SDS011;3764;48.126;11.594;2024-01-11T06:36:27;43.05;;;15.50;;
7444;SDS011;3764;48.126;11.594;2024-01-11T06:38:55;41.30;;;16.10;;
7444;SDS011;3764;48.126;11.594;2024-01-11T06:41:23;30.33;;;14.27;;
7444;SDS011;3764;48.126;11.594;2024-01-11T06:43:51;30.13;;;13.85;;
7444;SDS011;3764;48.126;11.594;2024-01-11T06:46:19;26.27;;;13.43;;
7444;SDS011;3764;48.126;11.594;2024-01-11T06:48:49;35.33;;;12.98;;
7444;SDS011;3764;48.126;11.594;2024-01-11T06:51:20;37.70;;;16.25;;
7444;SDS011;3764;48.126;11.594;2024-01-11T06:53:47;26.50;;;13.82;;
7444;SDS011;3764;48.126;11.594;2024-01-11T06:56:15;32.65;;;13.50;;
7444;SDS011;3764;48.126;11.594;2024-01-11T06:58:45;28.48;;;12.20;;
7444;SDS011;3764;48.126;11.594;2024-01-11T07:01:12;32.22;;;14.65;;
7444;SDS011;3764;48.126;11.594;2024-01-11T07:03:40;24.70;;;12.65;;
7444;SDS011;3764;48.126;11.594;2024-01-11T07:06:07;30.73;;;14.07;;
7444;SDS011;3764;48.126;11.594;2024-01-11T07:08:34;36.17;;;16.02;;
7444;SDS011;3764;48.126;11.594;2024-01-11T07:11:02;30.33;;;13.00;;
7444;SDS011;3764;48.126;11.594;2024-01-11T07:13:30;27.20;;;12.82;;
7444;SDS011;3764;48.126;11.594;2024-01-11T07:15:59;31.05;;;13.60;;
7444;SDS011;3764;48.126;11.594;2024-01-11T07:18:28;33.65;;;14.63;;
7444;SDS011;3764;48.126;11.594;2024-01-11T07:20:56;31.83;;;12.63;;
7444;SDS011;3764;48.126;11.594;2024-01-11T07:23:23;29.08;;;14.00;;
7444;SDS011;3764;48.126;11.594;2024-01-11T07:25:51;33.15;;;15.32;;
7444;SDS011;3764;48.126;11.594;2024-01-11T07:28:18;27.58;;;13.65;;
7444;SDS011;3764;48.126;11.594;2024-01-11T07:30:50;35.58;;;16.02;;
7444;SDS011;3764;48.126;11.594;2024-01-11T07:33:19;36.38;;;15.18;;
7444;SDS011;3764;48.126;11.594;2024-01-11T07:35:47;34.80;;;15.35;;
7444;SDS011;3764;48.126;11.594;2024-01-11T07:38:15;36.10;;;14.60;;
7444;SDS011;3764;48.126;11.594;2024-01-11T07:40:42;41.10;;;16.35;;
7444;SDS011;3764;48.126;11.594;2024-01-11T07:43:09;29.48;;;14.75;;
7444;SDS011;3764;48.126;11.594;2024-01-11T07:45:37;28.30;;;14.15;;
7444;SDS011;3764;48.126;11.594;2024-01-11T07:48:05;31.17;;;14.07;;
7444;SDS011;3764;48.126;11.594;2024-01-11T07:50:34;30.10;;;13.85;;
7444;SDS011;3764;48.126;11.594;2024-01-11T07:53:01;41.38;;;17.05;;
7444;SDS011;3764;48.126;11.594;2024-01-11T07:55:29;33.05;;;14.05;;
7444;SDS011;3764;48.126;11.594;2024-01-11T07:57:56;29.30;;;13.63;;
7444;SDS011;3764;48.126;11.594;2024-01-11T08:00:24;32.97;;;15.50;;
7444;SDS011;3764;48.126;11.594;2024-01-11T08:02:51;30.52;;;14.13;;
7444;SDS011;3764;48.126;11.594;2024-01-11T08:05:19;35.92;;;16.92;;
7444;SDS011;3764;48.126;11.594;2024-01-11T08:07:48;37.42;;;15.30;;
7444;SDS011;3764;48.126;11.594;2024-01-11T08:10:16;34.40;;;15.10;;
7444;SDS011;3764;48.126;11.594;2024-01-11T08:12:43;34.70;;;15.65;;
7444;SDS011;3764;48.126;11.594;2024-01-11T08:15:11;39.47;;;15.15;;
7444;SDS011;3764;48.126;11.594;2024-01-11T08:17:38;47.42;;;15.65;;
7444;SDS011;3764;48.126;11.594;2024-01-11T08:20:10;27.08;;;14.95;;
7444;SDS011;3764;48.126;11.594;2024-01-11T08:22:38;34.47;;;13.30;;
7444;SDS011;3764;48.126;11.594;2024-01-11T08:25:07;38.95;;;16.10;;
7444;SDS011;3764;48.126;11.594;2024-01-11T08:27:35;41.08;;;15.88;;
7444;SDS011;3764;48.126;11.594;2024-01-11T08:30:03;44.63;;;20.58;;
7444;SDS011;3764;48.126;11.594;2024-01-11T08:32:31;34.13;;;17.75;;
7444;SDS011;3764;48.126;11.594;2024-01-11T08:35:04;42.95;;;17.80;;
7444;SDS011;3764;48.126;11.594;2024-01-11T08:37:34;47.72;;;18.25;;
7444;SDS011;3764;48.126;11.594;2024-01-11T08:40:01;47.15;;;17.75;;
7444;SDS011;3764;48.126;11.594;2024-01-11T08:42:31;41.83;;;17.13;;
7444;SDS011;3764;48.126;11.594;2024-01-11T08:44:58;44.60;;;17.77;;
7444;SDS011;3764;48.126;11.594;2024-01-11T08:47:32;37.50;;;16.42;;
7444;SDS011;3764;48.126;11.594;2024-01-11T08:50:00;47.28;;;18.30;;
7444;SDS011;3764;48.126;11.594;2024-01-11T08:52:31;46.92;;;18.92;;
7444;SDS011;3764;48.126;11.594;2024-01-11T08:54:58;40.65;;;18.83;;
7444;SDS011;3764;48.126;11.594;2024-01-11T08:57:26;44.90;;;20.05;;
7444;SDS011;3764;48.126;11.594;2024-01-11T08:59:55;45.40;;;19.90;;
7444;SDS011;3764;48.126;11.594;2024-01-11T09:02:22;44.55;;;17.20;;
7444;SDS011;3764;48.126;11.594;2024-01-11T09:04:49;40.45;;;18.73;;
7444;SDS011;3764;48.126;11.594;2024-01-11T09:07:17;38.47;;;18.13;;
7444;SDS011;3764;48.126;11.594;2024-01-11T09:09:44;45.10;;;21.25;;
7444;SDS011;3764;48.126;11.594;2024-01-11T09:12:12;37.75;;;18.23;;
7444;SDS011;3764;48.126;11.594;2024-01-11T09:14:39;35.72;;;17.15;;
7444;SDS011;3764;48.126;11.594;2024-01-11T09:17:08;42.75;;;17.98;;
7444;SDS011;3764;48.126;11.594;2024-01-11T09:19:35;37.25;;;18.13;;
7444;SDS011;3764;48.126;11.594;2024-01-11T09:22:05;38.63;;;18.40;;
7444;SDS011;3764;48.126;11.594;2024-01-11T09:24:35;40.83;;;19.05;;
7444;SDS011;3764;48.126;11.594;2024-01-11T09:27:02;40.15;;;18.08;;
7444;SDS011;3764;48.126;11.594;2024-01-11T09:29:30;37.35;;;17.13;;
7444;SDS011;3764;48.126;11.594;2024-01-11T09:31:58;36.42;;;18.85;;
7444;SDS011;3764;48.126;11.594;2024-01-11T09:34:27;42.25;;;20.88;;
7444;SDS011;3764;48.126;11.594;2024-01-11T09:36:55;50.75;;;21.60;;
7444;SDS011;3764;48.126;11.594;2024-01-11T09:39:24;49.13;;;20.40;;
7444;SDS011;3764;48.126;11.594;2024-01-11T09:41:52;36.63;;;18.40;;
7444;SDS011;3764;48.126;11.594;2024-01-11T09:44:25;44.55;;;19.85;;
7444;SDS011;3764;48.126;11.594;2024-01-11T09:46:52;48.50;;;21.33;;
7444;SDS011;3764;48.126;11.594;2024-01-11T09:49:21;45.75;;;21.90;;
7444;SDS011;3764;48.126;11.594;2024-01-11T09:51:51;53.53;;;20.65;;
7444;SDS011;3764;48.126;11.594;2024-01-11T09:54:22;44.75;;;21.73;;
7444;SDS011;3764;48.126;11.594;2024-01-11T09:56:51;55.55;;;25.30;;
7444;SDS011;3764;48.126;11.594;2024-01-11T09:59:21;53.17;;;21.95;;
7444;SDS011;3764;48.126;11.594;2024-01-11T10:01:50;56.38;;;25.60;;
7444;SDS011;3764;48.126;11.594;2024-01-11T10:04:18;57.28;;;25.67;;
7444;SDS011;3764;48.126;11.594;2024-01-11T10:06:45;51.63;;;23.48;;
7444;SDS011;3764;48.126;11.594;2024-01-11T10:09:15;61.15;;;26.02;;
7444;SDS011;3764;48.126;11.594;2024-01-11T10:11:43;41.20;;;19.75;;
7444;SDS011;3764;48.126;11.594;2024-01-11T10:14:11;50.03;;;21.70;;
7444;SDS011;3764;48.126;11.594;2024-01-11T10:16:41;53.03;;;23.30;;
7444;SDS011;3764;48.126;11.594;2024-01-11T10:19:09;58.95;;;25.50;;
7444;SDS011;3764;48.126;11.594;2024-01-11T10:21:39;46.50;;;22.10;;
7444;SDS011;3764;48.126;11.594;2024-01-11T10:24:06;45.83;;;20.83;;
7444;SDS011;3764;48.126;11.594;2024-01-11T10:26:35;50.88;;;23.73;;
7444;SDS011;3764;48.126;11.594;2024-01-11T10:29:04;48.30;;;24.17;;
7444;SDS011;3764;48.126;11.594;2024-01-11T10:31:36;50.03;;;22.35;;
7444;SDS011;3764;48.126;11.594;2024-01-11T10:34:03;45.70;;;18.85;;
7444;SDS011;3764;48.126;11.594;2024-01-11T10:36:31;47.15;;;20.92;;
7444;SDS011;3764;48.126;11.594;2024-01-11T10:39:00;53.38;;;21.23;;
7444;SDS011;3764;48.126;11.594;2024-01-11T10:41:32;51.50;;;22.15;;
7444;SDS011;3764;48.126;11.594;2024-01-11T10:44:07;53.75;;;22.60;;
7444;SDS011;3764;48.126;11.594;2024-01-11T10:46:42;51.60;;;22.88;;
7444;SDS011;3764;48.126;11.594;2024-01-11T10:49:14;52.28;;;22.40;;
7444;SDS011;3764;48.126;11.594;2024-01-11T10:51:45;52.40;;;22.23;;
7444;SDS011;3764;48.126;11.594;2024-01-11T10:54:19;50.80;;;21.70;;
7444;SDS011;3764;48.126;11.594;2024-01-11T10:56:49;57.33;;;23.27;;
7444;SDS011;3764;48.126;11.594;2024-01-11T10:59:18;52.65;;;25.50;;
7444;SDS011;3764;48.126;11.594;2024-01-11T11:01:51;54.00;;;25.38;;
7444;SDS011;3764;48.126;11.594;2024-01-11T11:04:21;63.17;;;25.45;;
7444;SDS011;3764;48.126;11.594;2024-01-11T11:06:49;52.33;;;25.10;;
7444;SDS011;3764;48.126;11.594;2024-01-11T11:09:21;53.22;;;22.95;;
7444;SDS011;3764;48.126;11.594;2024-01-11T11:11:51;69.10;;;28.73;;
7444;SDS011;3764;48.126;11.594;2024-01-11T11:14:22;61.78;;;27.77;;
7444;SDS011;3764;48.126;11.594;2024-01-11T11:16:50;57.15;;;27.27;;
7444;SDS011;3764;48.126;11.594;2024-01-11T11:19:19;66.80;;;26.23;;
7444;SDS011;3764;48.126;11.594;2024-01-11T11:21:48;58.75;;;27.08;;
7444;SDS011;3764;48.126;11.594;2024-01-11T11:24:16;54.72;;;25.80;;
7444;SDS011;3764;48.126;11.594;2024-01-11T11:26:44;57.35;;;26.85;;
7444;SDS011;3764;48.126;11.594;2024-01-11T11:29:13;63.13;;;26.30;;
7444;SDS011;3764;48.126;11.594;2024-01-11T11:31:42;58.35;;;27.38;;
7444;SDS011;3764;48.126;11.594;2024-01-11T11:34:12;61.00;;;26.95;;
7444;SDS011;3764;48.126;11.594;2024-01-11T11:36:40;58.95;;;26.40;;
7444;SDS011;3764;48.126;11.594;2024-01-11T11:39:09;59.50;;;28.33;;
7444;SDS011;3764;48.126;11.594;2024-01-11T11:41:37;63.08;;;26.85;;
7444;SDS011;3764;48.126;11.594;2024-01-11T11:44:06;56.85;;;28.67;;
7444;SDS011;3764;48.126;11.594;2024-01-11T11:46:39;65.88;;;28.70;;
7444;SDS011;3764;48.126;11.594;2024-01-11T11:49:07;67.10;;;30.77;;
7444;SDS011;3764;48.126;11.594;2024-01-11T11:51:35;64.32;;;28.42;;
7444;SDS011;3764;48.126;11.594;2024-01-11T11:54:06;69.18;;;29.23;;
7444;SDS011;3764;48.126;11.594;2024-01-11T11:56:36;60.38;;;29.58;;
7444;SDS011;3764;48.126;11.594;2024-01-11T11:59:03;62.65;;;27.90;;
7444;SDS011;3764;48.126;11.594;2024-01-11T12:01:31;67.20;;;27.65;;
7444;SDS011;3764;48.126;11.594;2024-01-11T12:04:00;63.22;;;28.52;;
7444;SDS011;3764;48.126;11.594;2024-01-11T12:06:27;65.55;;;29.50;;
7444;SDS011;3764;48.126;11.594;2024-01-11T12:08:55;69.63;;;29.70;;
7444;SDS011;3764;48.126;11.594;2024-01-11T12:11:22;64.30;;;26.73;;
7444;SDS011;3764;48.126;11.594;2024-01-11T12:13:50;66.35;;;29.55;;
7444;SDS011;3764;48.126;11.594;2024-01-11T12:16:19;67.20;;;28.00;;
7444;SDS011;3764;48.126;11.594;2024-01-11T12:18:48;64.47;;;29.98;;
7444;SDS011;3764;48.126;11.594;2024-01-11T12:21:18;71.40;;;29.08;;
7444;SDS011;3764;48.126;11.594;2024-01-11T12:23:46;52.97;;;26.20;;
7444;SDS011;3764;48.126;11.594;2024-01-11T12:26:14;54.38;;;26.40;;
7444;SDS011;3764;48.126;11.594;2024-01-11T12:28:41;65.22;;;28.65;;
7444;SDS011;3764;48.126;11.594;2024-01-11T12:31:09;69.25;;;28.33;;
7444;SDS011;3764;48.126;11.594;2024-01-11T12:33:37;70.03;;;28.10;;
7444;SDS011;3764;48.126;11.594;2024-01-11T12:36:06;62.75;;;26.25;;
7444;SDS011;3764;48.126;11.594;2024-01-11T12:38:35;66.60;;;27.05;;
7444;SDS011;3764;48.126;11.594;2024-01-11T12:41:04;59.38;;;27.42;;
7444;SDS011;3764;48.126;11.594;2024-01-11T12:43:32;59.30;;;25.33;;
7444;SDS011;3764;48.126;11.594;2024-01-11T12:46:00;55.33;;;26.40;;
7444;SDS011;3764;48.126;11.594;2024-01-11T12:48:28;61.58;;;27.30;;
7444;SDS011;3764;48.126;11.594;2024-01-11T12:50:56;61.10;;;28.55;;
7444;SDS011;3764;48.126;11.594;2024-01-11T12:53:24;62.78;;;28.35;;
7444;SDS011;3764;48.126;11.594;2024-01-11T12:56:03;52.92;;;26.73;;
7444;SDS011;3764;48.126;11.594;2024-01-11T12:58:33;67.40;;;27.13;;
7444;SDS011;3764;48.126;11.594;2024-01-11T13:01:01;51.00;;;25.67;;
7444;SDS011;3764;48.126;11.594;2024-01-11T13:03:29;53.20;;;27.70;;
7444;SDS011;3764;48.126;11.594;2024-01-11T13:05:57;62.88;;;27.50;;
7444;SDS011;3764;48.126;11.594;2024-01-11T13:08:24;53.50;;;26.58;;
7444;SDS011;3764;48.126;11.594;2024-01-11T13:10:52;55.17;;;27.10;;
7444;SDS011;3764;48.126;11.594;2024-01-11T13:13:21;58.70;;;27.08;;
7444;SDS011;3764;48.126;11.594;2024-01-11T13:15:48;57.53;;;27.20;;
7444;SDS011;3764;48.126;11.594;2024-01-11T13:18:17;58.97;;;29.35;;
7444;SDS011;3764;48.126;11.594;2024-01-11T13:20:44;66.55;;;27.77;;
7444;SDS011;3764;48.126;11.594;2024-01-11T13:23:12;65.72;;;29.05;;
7444;SDS011;3764;48.126;11.594;2024-01-11T13:25:40;66.75;;;29.70;;
7444;SDS011;3764;48.126;11.594;2024-01-11T13:28:08;62.10;;;27.83;;
7444;SDS011;3764;48.126;11.594;2024-01-11T13:30:38;63.05;;;24.80;;
7444;SDS011;3764;48.126;11.594;2024-01-11T13:33:06;62.60;;;28.65;;
7444;SDS011;3764;48.126;11.594;2024-01-11T13:35:34;65.75;;;28.15;;
7444;SDS011;3764;48.126;11.594;2024-01-11T13:38:02;58.53;;;25.88;;
7444;SDS011;3764;48.126;11.594;2024-01-11T13:40:30;52.30;;;26.02;;
7444;SDS011;3764;48.126;11.594;2024-01-11T13:42:58;65.53;;;30.30;;
7444;SDS011;3764;48.126;11.594;2024-01-11T13:45:26;63.42;;;28.38;;
7444;SDS011;3764;48.126;11.594;2024-01-11T13:47:54;64.55;;;28.35;;
7444;SDS011;3764;48.126;11.594;2024-01-11T13:50:22;64.13;;;29.10;;
7444;SDS011;3764;48.126;11.594;2024-01-11T13:52:50;60.40;;;29.17;;
7444;SDS011;3764;48.126;11.594;2024-01-11T13:55:18;71.68;;;29.80;;
7444;SDS011;3764;48.126;11.594;2024-01-11T13:57:46;57.88;;;28.73;;
7444;SDS011;3764;48.126;11.594;2024-01-11T14:00:14;67.38;;;30.13;;
7444;SDS011;3764;48.126;11.594;2024-01-11T14:02:43;67.50;;;27.70;;
7444;SDS011;3764;48.126;11.594;2024-01-11T14:05:12;65.65;;;29.55;;
7444;SDS011;3764;48.126;11.594;2024-01-11T14:07:43;60.30;;;30.23;;
7444;SDS011;3764;48.126;11.594;2024-01-11T14:10:10;74.05;;;29.08;;
7444;SDS011;3764;48.126;11.594;2024-01-11T14:12:38;73.43;;;31.20;;
7444;SDS011;3764;48.126;11.594;2024-01-11T14:15:06;67.07;;;30.92;;
7444;SDS011;3764;48.126;11.594;2024-01-11T14:17:37;60.80;;;26.83;;
7444;SDS011;3764;48.126;11.594;2024-01-11T14:20:05;62.40;;;28.10;;
7444;SDS011;3764;48.126;11.594;2024-01-11T14:22:39;63.33;;;29.05;;
7444;SDS011;3764;48.126;11.594;2024-01-11T14:25:07;72.65;;;29.30;;
7444;SDS011;3764;48.126;11.594;2024-01-11T14:27:36;64.22;;;29.65;;
7444;SDS011;3764;48.126;11.594;2024-01-11T14:30:04;63.97;;;29.08;;
7444;SDS011;3764;48.126;11.594;2024-01-11T14:32:32;68.10;;;31.38;;
7444;SDS011;3764;48.126;11.594;2024-01-11T14:35:00;55.83;;;29.20;;
7444;SDS011;3764;48.126;11.594;2024-01-11T14:37:29;59.88;;;29.85;;
7444;SDS011;3764;48.126;11.594;2024-01-11T14:39:58;66.40;;;28.13;;